sensor_id;sensor_type;location;lat;lon;timestamp;temperature;humidity
30399;DHT22;17195;50.838;7.214;2023-11-19T00:01:55;11.00;99.90
30399;DHT22;17195;50.838;7.214;2023-11-19T00:04:22;11.00;99.90
30399;DHT22;17195;50.838;7.214;2023-11-19T00:06:48;11.00;99.90
30399;DHT22;17195;50.838;7.214;2023-11-19T00:09:13;11.00;99.90
30399;DHT22;17195;50.838;7.214;2023-11-19T00:11:40;11.00;99.90
30399;DHT22;17195;50.838;7.214;2023-11-19T00:14:06;11.10;99.90
30399;DHT22;17195;50.838;7.214;2023-11-19T00:16:34;11.10;99.90
30399;DHT22;17195;50.838;7.214;2023-11-19T00:19:00;11.10;99.90
30399;DHT22;17195;50.838;7.214;2023-11-19T00:21:25;11.10;99.90
30399;DHT22;17195;50.838;7.214;2023-11-19T00:23:54;11.10;99.90
30399;DHT22;17195;50.838;7.214;2023-11-19T00:26:19;11.10;99.90
30399;DHT22;17195;50.838;7.214;2023-11-19T00:28:45;11.10;99.90
30399;DHT22;17195;50.838;7.214;2023-11-19T00:31:12;11.20;99.90
30399;DHT22;17195;50.838;7.214;2023-11-19T00:33:38;11.20;99.90
30399;DHT22;17195;50.838;7.214;2023-11-19T00:36:05;11.20;99.90
30399;DHT22;17195;50.838;7.214;2023-11-19T00:38:30;11.20;99.90
30399;DHT22;17195;50.838;7.214;2023-11-19T00:40:56;11.20;99.90
30399;DHT22;17195;50.838;7.214;2023-11-19T00:43:22;11.20;99.90
30399;DHT22;17195;50.838;7.214;2023-11-19T00:45:47;11.20;99.90
30399;DHT22;17195;50.838;7.214;2023-11-19T00:48:15;11.20;99.90
30399;DHT22;17195;50.838;7.214;2023-11-19T00:50:41;11.20;99.90
30399;DHT22;17195;50.838;7.214;2023-11-19T00:53:09;11.20;99.90
30399;DHT22;17195;50.838;7.214;2023-11-19T00:55:35;11.20;99.90
30399;DHT22;17195;50.838;7.214;2023-11-19T00:58:00;11.20;99.90
30399;DHT22;17195;50.838;7.214;2023-11-19T01:00:26;11.30;99.90
30399;DHT22;17195;50.838;7.214;2023-11-19T01:02:52;11.30;99.90
30399;DHT22;17195;50.838;7.214;2023-11-19T01:05:19;11.30;99.90
30399;DHT22;17195;50.838;7.214;2023-11-19T01:07:49;11.30;99.90
30399;DHT22;17195;50.838;7.214;2023-11-19T01:10:15;11.30;99.90
30399;DHT22;17195;50.838;7.214;2023-11-19T01:12:44;11.30;99.90
30399;DHT22;17195;50.838;7.214;2023-11-19T01:15:10;11.20;99.90
30399;DHT22;17195;50.838;7.214;2023-11-19T01:17:37;11.20;99.90
30399;DHT22;17195;50.838;7.214;2023-11-19T01:20:03;11.20;99.90
30399;DHT22;17195;50.838;7.214;2023-11-19T01:22:31;11.30;99.90
30399;DHT22;17195;50.838;7.214;2023-11-19T01:24:57;11.30;99.90
30399;DHT22;17195;50.838;7.214;2023-11-19T01:27:24;11.30;99.90
30399;DHT22;17195;50.838;7.214;2023-11-19T01:29:50;11.30;99.90
30399;DHT22;17195;50.838;7.214;2023-11-19T01:32:15;11.30;99.90
30399;DHT22;17195;50.838;7.214;2023-11-19T01:34:41;11.30;99.90
30399;DHT22;17195;50.838;7.214;2023-11-19T01:37:07;11.30;99.90
30399;DHT22;17195;50.838;7.214;2023-11-19T01:39:34;11.30;99.90
30399;DHT22;17195;50.838;7.214;2023-11-19T01:42:00;11.40;99.90
30399;DHT22;17195;50.838;7.214;2023-11-19T01:44:25;11.30;99.90
30399;DHT22;17195;50.838;7.214;2023-11-19T01:46:51;11.40;99.90
30399;DHT22;17195;50.838;7.214;2023-11-19T01:49:18;11.40;99.90
30399;DHT22;17195;50.838;7.214;2023-11-19T01:51:45;11.40;99.90
30399;DHT22;17195;50.838;7.214;2023-11-19T01:54:12;11.40;99.90
30399;DHT22;17195;50.838;7.214;2023-11-19T01:56:40;11.30;99.90
30399;DHT22;17195;50.838;7.214;2023-11-19T01:59:07;11.40;99.90
30399;DHT22;17195;50.838;7.214;2023-11-19T02:01:35;11.40;99.90
30399;DHT22;17195;50.838;7.214;2023-11-19T02:04:05;11.40;99.90
30399;DHT22;17195;50.838;7.214;2023-11-19T02:06:33;11.40;99.90
30399;DHT22;17195;50.838;7.214;2023-11-19T02:08:59;11.30;99.90
30399;DHT22;17195;50.838;7.214;2023-11-19T02:11:26;11.30;99.90
30399;DHT22;17195;50.838;7.214;2023-11-19T02:13:55;11.30;99.90
30399;DHT22;17195;50.838;7.214;2023-11-19T02:16:21;11.40;99.90
30399;DHT22;17195;50.838;7.214;2023-11-19T02:18:47;11.40;99.90
30399;DHT22;17195;50.838;7.214;2023-11-19T02:21:13;11.40;99.90
30399;DHT22;17195;50.838;7.214;2023-11-19T02:23:40;11.40;99.90
30399;DHT22;17195;50.838;7.214;2023-11-19T02:26:38;11.40;99.90
30399;DHT22;17195;50.838;7.214;2023-11-19T02:29:04;11.40;99.90
30399;DHT22;17195;50.838;7.214;2023-11-19T02:31:32;11.40;99.90
30399;DHT22;17195;50.838;7.214;2023-11-19T02:33:59;11.40;99.90
30399;DHT22;17195;50.838;7.214;2023-11-19T02:36:26;11.40;99.90
30399;DHT22;17195;50.838;7.214;2023-11-19T02:38:51;11.40;99.90
30399;DHT22;17195;50.838;7.214;2023-11-19T02:41:17;11.50;99.90
30399;DHT22;17195;50.838;7.214;2023-11-19T02:43:42;11.50;99.90
30399;DHT22;17195;50.838;7.214;2023-11-19T02:46:08;11.50;99.90
30399;DHT22;17195;50.838;7.214;2023-11-19T02:48:34;11.50;99.90
30399;DHT22;17195;50.838;7.214;2023-11-19T02:51:03;11.50;99.90
30399;DHT22;17195;50.838;7.214;2023-11-19T02:53:32;11.50;99.90
30399;DHT22;17195;50.838;7.214;2023-11-19T02:55:58;11.50;99.90
30399;DHT22;17195;50.838;7.214;2023-11-19T02:58:32;11.50;99.90
30399;DHT22;17195;50.838;7.214;2023-11-19T03:00:57;11.50;99.90
30399;DHT22;17195;50.838;7.214;2023-11-19T03:03:25;11.50;99.90
30399;DHT22;17195;50.838;7.214;2023-11-19T03:05:56;11.40;99.90
30399;DHT22;17195;50.838;7.214;2023-11-19T03:08:22;11.40;99.90
30399;DHT22;17195;50.838;7.214;2023-11-19T03:10:48;11.40;99.90
30399;DHT22;17195;50.838;7.214;2023-11-19T03:13:14;11.40;99.90
30399;DHT22;17195;50.838;7.214;2023-11-19T03:15:40;11.40;99.90
30399;DHT22;17195;50.838;7.214;2023-11-19T03:18:07;11.40;99.90
30399;DHT22;17195;50.838;7.214;2023-11-19T03:20:32;11.40;99.90
30399;DHT22;17195;50.838;7.214;2023-11-19T03:22:59;11.40;99.90
30399;DHT22;17195;50.838;7.214;2023-11-19T03:25:25;11.40;99.90
30399;DHT22;17195;50.838;7.214;2023-11-19T03:27:59;11.40;99.90
30399;DHT22;17195;50.838;7.214;2023-11-19T03:30:26;11.30;99.90
30399;DHT22;17195;50.838;7.214;2023-11-19T03:32:51;11.30;99.90
30399;DHT22;17195;50.838;7.214;2023-11-19T03:35:17;11.30;99.90
30399;DHT22;17195;50.838;7.214;2023-11-19T03:37:42;11.30;99.90
30399;DHT22;17195;50.838;7.214;2023-11-19T03:40:09;11.30;99.90
30399;DHT22;17195;50.838;7.214;2023-11-19T03:42:35;11.30;99.90
30399;DHT22;17195;50.838;7.214;2023-11-19T03:45:01;11.30;99.90
30399;DHT22;17195;50.838;7.214;2023-11-19T03:47:26;11.30;99.90
30399;DHT22;17195;50.838;7.214;2023-11-19T03:49:52;11.30;99.90
30399;DHT22;17195;50.838;7.214;2023-11-19T03:52:18;11.20;99.90
30399;DHT22;17195;50.838;7.214;2023-11-19T03:54:44;11.20;99.90
30399;DHT22;17195;50.838;7.214;2023-11-19T03:57:12;11.10;99.90
30399;DHT22;17195;50.838;7.214;2023-11-19T03:59:38;11.20;99.90
30399;DHT22;17195;50.838;7.214;2023-11-19T04:02:04;11.20;99.90
30399;DHT22;17195;50.838;7.214;2023-11-19T04:04:29;11.20;99.90
30399;DHT22;17195;50.838;7.214;2023-11-19T04:06:55;11.20;99.90
30399;DHT22;17195;50.838;7.214;2023-11-19T04:09:21;11.20;99.90
30399;DHT22;17195;50.838;7.214;2023-11-19T04:11:47;11.20;99.90
30399;DHT22;17195;50.838;7.214;2023-11-19T04:14:13;11.20;99.90
30399;DHT22;17195;50.838;7.214;2023-11-19T04:16:40;11.10;99.90
30399;DHT22;17195;50.838;7.214;2023-11-19T04:19:05;11.20;99.90
30399;DHT22;17195;50.838;7.214;2023-11-19T04:21:32;11.20;99.90
30399;DHT22;17195;50.838;7.214;2023-11-19T04:23:57;11.10;99.90
30399;DHT22;17195;50.838;7.214;2023-11-19T04:26:23;11.20;99.90
30399;DHT22;17195;50.838;7.214;2023-11-19T04:28:49;11.40;99.90
30399;DHT22;17195;50.838;7.214;2023-11-19T04:31:15;11.60;99.90
30399;DHT22;17195;50.838;7.214;2023-11-19T04:33:42;11.70;99.90
30399;DHT22;17195;50.838;7.214;2023-11-19T04:36:08;11.80;99.90
30399;DHT22;17195;50.838;7.214;2023-11-19T04:38:33;11.90;99.90
30399;DHT22;17195;50.838;7.214;2023-11-19T04:41:00;12.00;99.90
30399;DHT22;17195;50.838;7.214;2023-11-19T04:43:25;12.00;99.90
30399;DHT22;17195;50.838;7.214;2023-11-19T04:45:51;12.10;99.90
30399;DHT22;17195;50.838;7.214;2023-11-19T04:48:16;12.00;99.90
30399;DHT22;17195;50.838;7.214;2023-11-19T04:50:42;12.10;99.90
30399;DHT22;17195;50.838;7.214;2023-11-19T04:53:07;12.00;99.90
30399;DHT22;17195;50.838;7.214;2023-11-19T04:55:33;12.10;99.90
30399;DHT22;17195;50.838;7.214;2023-11-19T04:57:58;12.10;99.90
30399;DHT22;17195;50.838;7.214;2023-11-19T05:00:24;12.10;99.90
30399;DHT22;17195;50.838;7.214;2023-11-19T05:02:49;12.20;99.90
30399;DHT22;17195;50.838;7.214;2023-11-19T05:05:16;12.20;99.90
30399;DHT22;17195;50.838;7.214;2023-11-19T05:07:41;12.20;99.90
30399;DHT22;17195;50.838;7.214;2023-11-19T05:10:07;12.20;99.90
30399;DHT22;17195;50.838;7.214;2023-11-19T05:12:33;12.30;99.90
30399;DHT22;17195;50.838;7.214;2023-11-19T05:14:59;12.20;99.90
30399;DHT22;17195;50.838;7.214;2023-11-19T05:17:25;12.10;99.90
30399;DHT22;17195;50.838;7.214;2023-11-19T05:19:51;12.10;99.90
30399;DHT22;17195;50.838;7.214;2023-11-19T05:22:17;12.10;99.90
30399;DHT22;17195;50.838;7.214;2023-11-19T05:24:43;12.00;99.90
30399;DHT22;17195;50.838;7.214;2023-11-19T05:27:08;12.00;99.90
30399;DHT22;17195;50.838;7.214;2023-11-19T05:29:36;11.90;99.90
30399;DHT22;17195;50.838;7.214;2023-11-19T05:32:04;12.00;99.90
30399;DHT22;17195;50.838;7.214;2023-11-19T05:34:30;11.90;99.90
30399;DHT22;17195;50.838;7.214;2023-11-19T05:36:56;11.90;99.90
30399;DHT22;17195;50.838;7.214;2023-11-19T05:39:22;12.00;99.90
30399;DHT22;17195;50.838;7.214;2023-11-19T05:41:48;12.10;99.90
30399;DHT22;17195;50.838;7.214;2023-11-19T05:44:13;12.20;99.90
30399;DHT22;17195;50.838;7.214;2023-11-19T05:46:39;12.10;99.90
30399;DHT22;17195;50.838;7.214;2023-11-19T05:49:08;12.10;99.90
30399;DHT22;17195;50.838;7.214;2023-11-19T05:51:37;12.10;99.90
30399;DHT22;17195;50.838;7.214;2023-11-19T05:54:02;12.10;99.90
30399;DHT22;17195;50.838;7.214;2023-11-19T05:56:28;12.20;99.90
30399;DHT22;17195;50.838;7.214;2023-11-19T05:58:58;12.20;99.90
30399;DHT22;17195;50.838;7.214;2023-11-19T06:01:25;12.30;99.90
30399;DHT22;17195;50.838;7.214;2023-11-19T06:03:52;12.30;99.90
30399;DHT22;17195;50.838;7.214;2023-11-19T06:06:18;12.30;99.90
30399;DHT22;17195;50.838;7.214;2023-11-19T06:08:44;12.20;99.90
30399;DHT22;17195;50.838;7.214;2023-11-19T06:11:10;12.30;99.90
30399;DHT22;17195;50.838;7.214;2023-11-19T06:13:40;12.20;99.90
30399;DHT22;17195;50.838;7.214;2023-11-19T06:16:06;12.20;99.90
30399;DHT22;17195;50.838;7.214;2023-11-19T06:18:32;12.30;99.90
30399;DHT22;17195;50.838;7.214;2023-11-19T06:20:57;12.30;99.90
30399;DHT22;17195;50.838;7.214;2023-11-19T06:23:23;12.30;99.90
30399;DHT22;17195;50.838;7.214;2023-11-19T06:25:48;12.20;99.90
30399;DHT22;17195;50.838;7.214;2023-11-19T06:28:14;12.20;99.90
30399;DHT22;17195;50.838;7.214;2023-11-19T06:30:40;12.30;99.90
30399;DHT22;17195;50.838;7.214;2023-11-19T06:33:06;12.30;99.90
30399;DHT22;17195;50.838;7.214;2023-11-19T06:35:32;12.30;99.90
30399;DHT22;17195;50.838;7.214;2023-11-19T06:38:07;12.40;99.90
30399;DHT22;17195;50.838;7.214;2023-11-19T06:40:33;12.40;99.90
30399;DHT22;17195;50.838;7.214;2023-11-19T06:43:03;12.40;99.90
30399;DHT22;17195;50.838;7.214;2023-11-19T06:45:29;12.50;99.90
30399;DHT22;17195;50.838;7.214;2023-11-19T06:47:55;12.50;99.90
30399;DHT22;17195;50.838;7.214;2023-11-19T06:50:21;12.50;99.90
30399;DHT22;17195;50.838;7.214;2023-11-19T06:52:46;12.50;99.90
30399;DHT22;17195;50.838;7.214;2023-11-19T06:55:12;12.50;99.90
30399;DHT22;17195;50.838;7.214;2023-11-19T06:57:38;12.40;99.90
30399;DHT22;17195;50.838;7.214;2023-11-19T07:00:05;12.40;99.90
30399;DHT22;17195;50.838;7.214;2023-11-19T07:02:31;12.40;99.90
30399;DHT22;17195;50.838;7.214;2023-11-19T07:04:57;12.40;99.90
30399;DHT22;17195;50.838;7.214;2023-11-19T07:07:22;12.50;99.90
30399;DHT22;17195;50.838;7.214;2023-11-19T07:09:48;12.40;99.90
30399;DHT22;17195;50.838;7.214;2023-11-19T07:12:14;12.30;99.90
30399;DHT22;17195;50.838;7.214;2023-11-19T07:14:40;12.30;99.90
30399;DHT22;17195;50.838;7.214;2023-11-19T07:17:07;12.20;99.90
30399;DHT22;17195;50.838;7.214;2023-11-19T07:19:34;12.20;99.90
30399;DHT22;17195;50.838;7.214;2023-11-19T07:22:01;12.30;99.90
30399;DHT22;17195;50.838;7.214;2023-11-19T07:24:27;12.20;99.90
30399;DHT22;17195;50.838;7.214;2023-11-19T07:26:53;12.20;99.90
30399;DHT22;17195;50.838;7.214;2023-11-19T07:29:19;12.30;99.90
30399;DHT22;17195;50.838;7.214;2023-11-19T07:31:48;12.30;99.90
30399;DHT22;17195;50.838;7.214;2023-11-19T07:34:13;12.20;99.90
30399;DHT22;17195;50.838;7.214;2023-11-19T07:36:39;12.10;99.90
30399;DHT22;17195;50.838;7.214;2023-11-19T07:39:05;12.20;99.90
30399;DHT22;17195;50.838;7.214;2023-11-19T07:41:31;12.20;99.90
30399;DHT22;17195;50.838;7.214;2023-11-19T07:43:57;12.20;99.90
30399;DHT22;17195;50.838;7.214;2023-11-19T07:46:22;12.20;99.90
30399;DHT22;17195;50.838;7.214;2023-11-19T07:48:48;12.20;99.90
30399;DHT22;17195;50.838;7.214;2023-11-19T07:51:14;12.20;99.90
30399;DHT22;17195;50.838;7.214;2023-11-19T07:53:40;12.20;99.90
30399;DHT22;17195;50.838;7.214;2023-11-19T07:56:07;12.10;99.90
30399;DHT22;17195;50.838;7.214;2023-11-19T07:58:33;12.20;99.90
30399;DHT22;17195;50.838;7.214;2023-11-19T08:00:59;12.20;99.90
30399;DHT22;17195;50.838;7.214;2023-11-19T08:03:24;12.20;99.90
30399;DHT22;17195;50.838;7.214;2023-11-19T08:05:50;12.30;99.90
30399;DHT22;17195;50.838;7.214;2023-11-19T08:08:16;12.20;99.90
30399;DHT22;17195;50.838;7.214;2023-11-19T08:10:42;12.20;99.90
30399;DHT22;17195;50.838;7.214;2023-11-19T08:13:08;12.30;99.90
30399;DHT22;17195;50.838;7.214;2023-11-19T08:15:34;12.30;99.90
30399;DHT22;17195;50.838;7.214;2023-11-19T08:17:59;12.40;99.90
30399;DHT22;17195;50.838;7.214;2023-11-19T08:20:25;12.50;99.90
30399;DHT22;17195;50.838;7.214;2023-11-19T08:22:51;12.40;99.90
30399;DHT22;17195;50.838;7.214;2023-11-19T08:25:16;12.50;99.90
30399;DHT22;17195;50.838;7.214;2023-11-19T08:27:42;12.60;99.90
30399;DHT22;17195;50.838;7.214;2023-11-19T08:30:08;12.60;99.90
30399;DHT22;17195;50.838;7.214;2023-11-19T08:32:34;12.70;99.90
30399;DHT22;17195;50.838;7.214;2023-11-19T08:35:00;12.60;99.90
30399;DHT22;17195;50.838;7.214;2023-11-19T08:37:26;12.60;99.90
30399;DHT22;17195;50.838;7.214;2023-11-19T08:39:52;12.70;99.90
30399;DHT22;17195;50.838;7.214;2023-11-19T08:42:18;12.70;99.90
30399;DHT22;17195;50.838;7.214;2023-11-19T08:44:44;12.70;99.90
30399;DHT22;17195;50.838;7.214;2023-11-19T08:47:15;12.70;99.90
30399;DHT22;17195;50.838;7.214;2023-11-19T08:49:43;12.70;99.90
30399;DHT22;17195;50.838;7.214;2023-11-19T08:52:09;12.70;99.90
30399;DHT22;17195;50.838;7.214;2023-11-19T08:54:36;12.80;99.90
30399;DHT22;17195;50.838;7.214;2023-11-19T08:57:01;12.80;99.90
30399;DHT22;17195;50.838;7.214;2023-11-19T08:59:28;12.90;99.90
30399;DHT22;17195;50.838;7.214;2023-11-19T09:01:54;13.00;99.90
30399;DHT22;17195;50.838;7.214;2023-11-19T09:04:20;13.10;99.90
30399;DHT22;17195;50.838;7.214;2023-11-19T09:06:48;13.20;99.90
30399;DHT22;17195;50.838;7.214;2023-11-19T09:09:13;13.10;99.90
30399;DHT22;17195;50.838;7.214;2023-11-19T09:11:39;13.10;99.90
30399;DHT22;17195;50.838;7.214;2023-11-19T09:14:05;13.20;99.90
30399;DHT22;17195;50.838;7.214;2023-11-19T09:16:30;13.30;99.90
30399;DHT22;17195;50.838;7.214;2023-11-19T09:18:56;13.30;99.90
30399;DHT22;17195;50.838;7.214;2023-11-19T09:21:23;13.20;99.90
30399;DHT22;17195;50.838;7.214;2023-11-19T09:23:48;13.30;99.90
30399;DHT22;17195;50.838;7.214;2023-11-19T09:26:14;13.50;99.90
30399;DHT22;17195;50.838;7.214;2023-11-19T09:28:40;13.50;99.90
30399;DHT22;17195;50.838;7.214;2023-11-19T09:31:18;13.60;99.90
30399;DHT22;17195;50.838;7.214;2023-11-19T09:33:44;13.60;99.90
30399;DHT22;17195;50.838;7.214;2023-11-19T09:36:14;13.60;99.90
30399;DHT22;17195;50.838;7.214;2023-11-19T09:38:40;13.70;99.90
30399;DHT22;17195;50.838;7.214;2023-11-19T09:41:06;13.70;99.90
30399;DHT22;17195;50.838;7.214;2023-11-19T09:43:35;13.80;99.90
30399;DHT22;17195;50.838;7.214;2023-11-19T09:46:05;13.80;99.90
30399;DHT22;17195;50.838;7.214;2023-11-19T09:48:35;13.80;99.90
30399;DHT22;17195;50.838;7.214;2023-11-19T09:51:03;13.90;99.90
30399;DHT22;17195;50.838;7.214;2023-11-19T09:53:30;13.90;99.90
30399;DHT22;17195;50.838;7.214;2023-11-19T09:55:56;13.80;99.90
30399;DHT22;17195;50.838;7.214;2023-11-19T09:58:22;13.90;99.90
30399;DHT22;17195;50.838;7.214;2023-11-19T10:00:49;13.90;99.90
30399;DHT22;17195;50.838;7.214;2023-11-19T10:03:15;14.00;99.90
30399;DHT22;17195;50.838;7.214;2023-11-19T10:05:41;14.10;99.90
30399;DHT22;17195;50.838;7.214;2023-11-19T10:08:07;14.20;99.90
30399;DHT22;17195;50.838;7.214;2023-11-19T10:10:33;14.30;99.90
30399;DHT22;17195;50.838;7.214;2023-11-19T10:12:59;14.30;99.90
30399;DHT22;17195;50.838;7.214;2023-11-19T10:15:26;14.30;99.90
30399;DHT22;17195;50.838;7.214;2023-11-19T10:17:56;14.30;99.90
30399;DHT22;17195;50.838;7.214;2023-11-19T10:20:22;14.30;99.90
30399;DHT22;17195;50.838;7.214;2023-11-19T10:22:48;14.30;99.90
30399;DHT22;17195;50.838;7.214;2023-11-19T10:25:25;14.40;99.90
30399;DHT22;17195;50.838;7.214;2023-11-19T10:27:52;14.40;99.90
30399;DHT22;17195;50.838;7.214;2023-11-19T10:30:27;14.30;99.90
30399;DHT22;17195;50.838;7.214;2023-11-19T10:33:07;14.30;99.90
30399;DHT22;17195;50.838;7.214;2023-11-19T10:35:35;14.50;99.90
30399;DHT22;17195;50.838;7.214;2023-11-19T10:38:13;14.50;99.90
30399;DHT22;17195;50.838;7.214;2023-11-19T10:40:39;14.60;99.90
30399;DHT22;17195;50.838;7.214;2023-11-19T10:43:05;14.70;99.90
30399;DHT22;17195;50.838;7.214;2023-11-19T10:45:33;14.70;99.90
30399;DHT22;17195;50.838;7.214;2023-11-19T10:47:59;14.80;99.90
30399;DHT22;17195;50.838;7.214;2023-11-19T10:50:26;14.80;99.90
30399;DHT22;17195;50.838;7.214;2023-11-19T10:52:56;14.90;99.90
30399;DHT22;17195;50.838;7.214;2023-11-19T10:55:27;14.80;99.90
30399;DHT22;17195;50.838;7.214;2023-11-19T10:58:00;14.80;99.90
30399;DHT22;17195;50.838;7.214;2023-11-19T11:00:29;14.90;99.90
30399;DHT22;17195;50.838;7.214;2023-11-19T11:03:01;14.90;99.90
30399;DHT22;17195;50.838;7.214;2023-11-19T11:05:29;14.90;99.90
30399;DHT22;17195;50.838;7.214;2023-11-19T11:07:58;14.90;99.90
30399;DHT22;17195;50.838;7.214;2023-11-19T11:10:26;14.90;99.90
30399;DHT22;17195;50.838;7.214;2023-11-19T11:12:52;14.90;99.90
30399;DHT22;17195;50.838;7.214;2023-11-19T11:15:27;14.90;99.90
30399;DHT22;17195;50.838;7.214;2023-11-19T11:18:00;14.80;99.90
30399;DHT22;17195;50.838;7.214;2023-11-19T11:20:32;14.80;99.90
30399;DHT22;17195;50.838;7.214;2023-11-19T11:31:44;14.50;99.90
30399;DHT22;17195;50.838;7.214;2023-11-19T11:34:40;14.50;99.90
30399;DHT22;17195;50.838;7.214;2023-11-19T11:39:34;14.50;99.90
30399;DHT22;17195;50.838;7.214;2023-11-19T11:45:12;14.50;99.90
30399;DHT22;17195;50.838;7.214;2023-11-19T11:50:14;14.50;99.90
30399;DHT22;17195;50.838;7.214;2023-11-19T11:55:28;14.30;99.90
30399;DHT22;17195;50.838;7.214;2023-11-19T11:57:56;14.30;99.90
30399;DHT22;17195;50.838;7.214;2023-11-19T12:00:40;14.20;99.90
30399;DHT22;17195;50.838;7.214;2023-11-19T12:03:07;14.10;99.90
30399;DHT22;17195;50.838;7.214;2023-11-19T12:05:38;14.00;99.90
30399;DHT22;17195;50.838;7.214;2023-11-19T12:08:06;14.10;99.90
30399;DHT22;17195;50.838;7.214;2023-11-19T12:10:43;14.10;99.90
30399;DHT22;17195;50.838;7.214;2023-11-19T12:13:09;14.10;99.90
30399;DHT22;17195;50.838;7.214;2023-11-19T12:16:07;13.90;99.90
30399;DHT22;17195;50.838;7.214;2023-11-19T12:18:32;13.90;99.90
30399;DHT22;17195;50.838;7.214;2023-11-19T12:20:59;13.80;99.90
30399;DHT22;17195;50.838;7.214;2023-11-19T12:23:27;13.80;99.90
30399;DHT22;17195;50.838;7.214;2023-11-19T12:25:54;13.90;99.90
30399;DHT22;17195;50.838;7.214;2023-11-19T12:28:20;13.90;99.90
30399;DHT22;17195;50.838;7.214;2023-11-19T12:30:46;13.90;99.90
30399;DHT22;17195;50.838;7.214;2023-11-19T12:33:14;13.90;99.90
30399;DHT22;17195;50.838;7.214;2023-11-19T12:35:44;14.00;99.90
30399;DHT22;17195;50.838;7.214;2023-11-19T12:38:21;13.90;99.90
30399;DHT22;17195;50.838;7.214;2023-11-19T12:40:47;13.80;99.90
30399;DHT22;17195;50.838;7.214;2023-11-19T12:43:27;13.80;99.90
30399;DHT22;17195;50.838;7.214;2023-11-19T12:45:52;13.70;99.90
30399;DHT22;17195;50.838;7.214;2023-11-19T12:48:18;13.80;99.90
30399;DHT22;17195;50.838;7.214;2023-11-19T12:51:10;13.80;99.90
30399;DHT22;17195;50.838;7.214;2023-11-19T12:53:48;13.80;99.90
30399;DHT22;17195;50.838;7.214;2023-11-19T12:56:15;13.90;99.90
30399;DHT22;17195;50.838;7.214;2023-11-19T12:58:41;13.90;99.90
30399;DHT22;17195;50.838;7.214;2023-11-19T13:01:08;14.00;99.90
30399;DHT22;17195;50.838;7.214;2023-11-19T13:03:36;14.00;99.90
30399;DHT22;17195;50.838;7.214;2023-11-19T13:06:07;14.00;99.90
30399;DHT22;17195;50.838;7.214;2023-11-19T13:08:47;14.00;99.90
30399;DHT22;17195;50.838;7.214;2023-11-19T13:11:31;14.10;99.90
30399;DHT22;17195;50.838;7.214;2023-11-19T13:16:25;14.20;99.90
30399;DHT22;17195;50.838;7.214;2023-11-19T13:18:51;14.30;99.90
30399;DHT22;17195;50.838;7.214;2023-11-19T13:21:17;14.40;99.90
30399;DHT22;17195;50.838;7.214;2023-11-19T13:23:43;14.40;99.90
30399;DHT22;17195;50.838;7.214;2023-11-19T13:26:09;14.60;99.90
30399;DHT22;17195;50.838;7.214;2023-11-19T13:28:35;14.70;99.90
30399;DHT22;17195;50.838;7.214;2023-11-19T13:31:00;14.90;99.90
30399;DHT22;17195;50.838;7.214;2023-11-19T13:33:26;15.00;99.90
30399;DHT22;17195;50.838;7.214;2023-11-19T13:35:52;15.10;99.90
30399;DHT22;17195;50.838;7.214;2023-11-19T13:38:18;15.10;99.90
30399;DHT22;17195;50.838;7.214;2023-11-19T13:40:44;15.00;99.90
30399;DHT22;17195;50.838;7.214;2023-11-19T13:43:09;15.00;99.90
30399;DHT22;17195;50.838;7.214;2023-11-19T13:45:35;15.10;99.90
30399;DHT22;17195;50.838;7.214;2023-11-19T13:48:00;15.10;99.90
30399;DHT22;17195;50.838;7.214;2023-11-19T13:50:26;15.00;99.90
30399;DHT22;17195;50.838;7.214;2023-11-19T13:52:51;14.80;99.90
30399;DHT22;17195;50.838;7.214;2023-11-19T13:55:17;14.70;99.90
30399;DHT22;17195;50.838;7.214;2023-11-19T13:57:43;14.60;99.90
30399;DHT22;17195;50.838;7.214;2023-11-19T14:00:10;14.70;99.90
30399;DHT22;17195;50.838;7.214;2023-11-19T14:02:38;14.80;99.90
30399;DHT22;17195;50.838;7.214;2023-11-19T14:05:05;14.80;99.90
30399;DHT22;17195;50.838;7.214;2023-11-19T14:07:31;14.90;99.90
30399;DHT22;17195;50.838;7.214;2023-11-19T14:09:56;15.00;99.90
30399;DHT22;17195;50.838;7.214;2023-11-19T14:12:22;15.00;99.90
30399;DHT22;17195;50.838;7.214;2023-11-19T14:14:48;15.10;99.90
30399;DHT22;17195;50.838;7.214;2023-11-19T14:17:13;15.00;99.90
30399;DHT22;17195;50.838;7.214;2023-11-19T14:19:41;15.10;99.90
30399;DHT22;17195;50.838;7.214;2023-11-19T14:22:06;15.10;99.90
30399;DHT22;17195;50.838;7.214;2023-11-19T14:24:32;15.10;99.90
30399;DHT22;17195;50.838;7.214;2023-11-19T14:26:58;15.00;99.90
30399;DHT22;17195;50.838;7.214;2023-11-19T14:29:24;14.90;99.90
30399;DHT22;17195;50.838;7.214;2023-11-19T14:31:51;14.80;99.90
30399;DHT22;17195;50.838;7.214;2023-11-19T14:34:17;14.80;99.90
30399;DHT22;17195;50.838;7.214;2023-11-19T14:36:44;14.70;99.90
30399;DHT22;17195;50.838;7.214;2023-11-19T14:39:10;14.60;99.90
30399;DHT22;17195;50.838;7.214;2023-11-19T14:41:36;14.60;99.90
30399;DHT22;17195;50.838;7.214;2023-11-19T14:44:01;14.50;99.90
30399;DHT22;17195;50.838;7.214;2023-11-19T14:46:28;14.50;99.90
30399;DHT22;17195;50.838;7.214;2023-11-19T14:48:54;14.50;99.90
30399;DHT22;17195;50.838;7.214;2023-11-19T14:51:20;14.40;99.90
30399;DHT22;17195;50.838;7.214;2023-11-19T14:53:46;14.30;99.90
30399;DHT22;17195;50.838;7.214;2023-11-19T14:56:12;14.30;99.90
30399;DHT22;17195;50.838;7.214;2023-11-19T14:58:38;14.30;99.90
30399;DHT22;17195;50.838;7.214;2023-11-19T15:01:04;14.30;99.90
30399;DHT22;17195;50.838;7.214;2023-11-19T15:03:30;14.30;99.90
30399;DHT22;17195;50.838;7.214;2023-11-19T15:05:56;14.30;99.90
30399;DHT22;17195;50.838;7.214;2023-11-19T15:08:22;14.20;99.90
30399;DHT22;17195;50.838;7.214;2023-11-19T15:10:47;14.10;99.90
30399;DHT22;17195;50.838;7.214;2023-11-19T15:13:13;14.00;99.90
30399;DHT22;17195;50.838;7.214;2023-11-19T15:15:38;14.00;99.90
30399;DHT22;17195;50.838;7.214;2023-11-19T15:18:04;13.90;99.90
30399;DHT22;17195;50.838;7.214;2023-11-19T15:20:30;13.80;99.90
30399;DHT22;17195;50.838;7.214;2023-11-19T15:22:57;13.70;99.90
30399;DHT22;17195;50.838;7.214;2023-11-19T15:25:22;13.70;99.90
30399;DHT22;17195;50.838;7.214;2023-11-19T15:27:48;13.60;99.90
30399;DHT22;17195;50.838;7.214;2023-11-19T15:30:14;13.40;99.90
30399;DHT22;17195;50.838;7.214;2023-11-19T15:32:41;13.30;99.90
30399;DHT22;17195;50.838;7.214;2023-11-19T15:35:10;13.30;99.90
30399;DHT22;17195;50.838;7.214;2023-11-19T15:37:37;13.20;99.90
30399;DHT22;17195;50.838;7.214;2023-11-19T15:40:07;13.20;99.90
30399;DHT22;17195;50.838;7.214;2023-11-19T15:42:36;13.20;99.90
30399;DHT22;17195;50.838;7.214;2023-11-19T15:45:02;13.20;99.90
30399;DHT22;17195;50.838;7.214;2023-11-19T15:47:32;13.20;99.90
30399;DHT22;17195;50.838;7.214;2023-11-19T15:49:57;13.10;99.90
30399;DHT22;17195;50.838;7.214;2023-11-19T15:52:23;13.20;99.90